Time;durP1;ratioP1;P1;durP2;ratioP2;P2;SDS_P1;SDS_P2;PMS_P1;PMS_P2;Temp;Humidity;BMP_temperature;BMP_pressure;BME280_temperature;BME280_humidity;BME280_pressure;Samples;Min_cycle;Max_cycle;Signal;HPM_P1;HPM_P2
2022/01/23 00:01:49;;;;;;;15.30;7.70;;;4.20;93.70;;;;;;5091463;28;20598;-72
2022/01/23 00:04:15;;;;;;;13.85;7.30;;;4.30;93.50;;;;;;5104470;28;20473;-71
2022/01/23 00:06:41;;;;;;;17.33;8.03;;;4.30;93.50;;;;;;5102450;28;20203;-70
2022/01/23 00:09:07;;;;;;;14.17;7.27;;;4.40;93.30;;;;;;5102779;28;20444;-70
2022/01/23 00:11:38;;;;;;;15.43;7.30;;;4.40;93.20;;;;;;5096304;28;20500;-71
2022/01/23 00:19:14;;;;;;;14.95;6.82;;;4.40;93.00;;;;;;5086103;28;20241;-72
2022/01/23 00:21:41;;;;;;;17.20;7.93;;;4.40;93.00;;;;;;5091501;28;20653;-73
2022/01/23 00:32:04;;;;;;;16.38;8.27;;;4.40;92.20;;;;;;5110186;28;20428;-70
2022/01/23 00:34:30;;;;;;;14.80;6.67;;;4.40;92.30;;;;;;5100982;28;20288;-72
2022/01/23 00:36:56;;;;;;;15.67;7.50;;;4.40;92.40;;;;;;5094699;28;20449;-70
2022/01/23 00:39:22;;;;;;;15.17;7.20;;;4.40;92.30;;;;;;5092326;28;20207;-69
2022/01/23 00:41:47;;;;;;;16.53;7.30;;;4.40;92.20;;;;;;5092045;28;20297;-71
2022/01/23 00:44:13;;;;;;;18.43;6.90;;;4.40;92.10;;;;;;5091999;28;20175;-70
2022/01/23 00:46:44;;;;;;;17.67;7.40;;;4.40;92.20;;;;;;5089616;28;20221;-71
2022/01/23 00:51:38;;;;;;;13.73;7.03;;;4.40;92.20;;;;;;5092995;28;20429;-71
2022/01/23 00:54:07;;;;;;;14.77;6.60;;;4.40;92.20;;;;;;5093072;28;20244;-70
2022/01/23 00:56:33;;;;;;;16.20;7.60;;;4.40;92.20;;;;;;5098855;28;20508;-69
2022/01/23 00:58:59;;;;;;;17.00;7.50;;;4.40;92.20;;;;;;5101623;28;20665;-70
2022/01/23 01:01:25;;;;;;;15.70;7.03;;;4.40;92.10;;;;;;5092417;28;20420;-71
2022/01/23 01:03:51;;;;;;;19.63;8.20;;;4.40;92.20;;;;;;5091647;28;20409;-70
2022/01/23 01:06:17;;;;;;;18.77;8.90;;;4.40;92.20;;;;;;5091671;28;20465;-70
2022/01/23 01:08:44;;;;;;;17.50;8.30;;;4.40;92.30;;;;;;5092522;28;20890;-69
2022/01/23 01:33:00;;;;;;;17.17;6.90;;;4.50;92.30;;;;;;5090969;28;20428;-70
2022/01/23 01:35:32;;;;;;;23.80;7.77;;;4.40;92.30;;;;;;5087640;28;20175;-70
2022/01/23 01:37:58;;;;;;;17.27;6.75;;;4.40;92.30;;;;;;5089049;28;20490;-70
2022/01/23 01:40:25;;;;;;;19.63;8.00;;;4.40;92.40;;;;;;5101881;28;20196;-69
2022/01/23 01:42:52;;;;;;;19.07;8.03;;;4.40;92.60;;;;;;5095471;28;20413;-69
2022/01/23 01:45:26;;;;;;;15.70;7.83;;;4.50;92.50;;;;;;5091451;28;20433;-70
2022/01/23 01:47:55;;;;;;;20.93;8.27;;;4.40;92.60;;;;;;5095428;28;20443;-70
2022/01/23 01:50:21;;;;;;;14.38;7.70;;;4.40;92.70;;;;;;5091194;28;20498;-70
2022/01/23 01:52:47;;;;;;;16.07;8.50;;;4.40;92.80;;;;;;5090230;28;20661;-70
2022/01/23 01:55:19;;;;;;;17.30;7.43;;;4.40;92.80;;;;;;5090470;28;20417;-69
2022/01/23 01:57:53;;;;;;;17.77;7.67;;;4.40;92.90;;;;;;5089895;28;20218;-68
2022/01/23 02:00:40;;;;;;;16.40;7.93;;;4.30;92.90;;;;;;5090227;28;20420;-69
2022/01/23 02:03:37;;;;;;;17.85;8.20;;;4.30;92.90;;;;;;5089932;28;20418;-70
2022/01/23 02:08:49;;;;;;;19.77;8.50;;;4.40;93.10;;;;;;5089803;28;20452;-70
2022/01/23 02:11:20;;;;;;;16.30;8.97;;;4.50;93.20;;;;;;5087883;28;20240;-69
2022/01/23 02:13:54;;;;;;;27.43;10.83;;;4.60;93.20;;;;;;5089443;28;20516;-69
2022/01/23 02:54:20;;;;;;;22.87;9.53;;;4.50;93.60;;;;;;5089443;28;20789;-69
2022/01/23 02:56:50;;;;;;;20.65;9.50;;;4.50;93.60;;;;;;5089499;28;20523;-69
2022/01/23 02:59:28;;;;;;;22.05;10.52;;;4.60;93.50;;;;;;5090456;28;20217;-68
2022/01/23 03:02:23;;;;;;;20.63;9.63;;;4.60;93.30;;;;;;5090575;28;20270;-70
2022/01/23 03:04:52;;;;;;;21.42;9.73;;;4.70;93.10;;;;;;5096224;28;20177;-70
2022/01/23 03:10:26;;;;;;;21.63;10.30;;;4.70;93.10;;;;;;5035251;28;20189;-70
2022/01/23 03:15:43;;;;;;;26.02;11.02;;;4.70;93.10;;;;;;5025466;28;20462;-71
2022/01/23 03:24:08;;;;;;;22.00;10.70;;;4.80;93.10;;;;;;5029984;28;20176;-70
2022/01/23 03:26:50;;;;;;;18.85;9.40;;;4.70;93.00;;;;;;5024538;28;20932;-69
2022/01/23 03:29:20;;;;;;;23.67;9.57;;;4.70;93.20;;;;;;5027530;28;20192;-70
2022/01/23 03:34:19;;;;;;;19.60;9.67;;;4.70;93.60;;;;;;5029670;28;20908;-70
2022/01/23 03:36:45;;;;;;;23.00;10.23;;;4.70;93.60;;;;;;5021912;28;20444;-69
2022/01/23 03:39:10;;;;;;;24.10;10.50;;;4.70;93.60;;;;;;5024161;28;20303;-69
2022/01/23 03:41:41;;;;;;;25.47;10.13;;;4.70;93.60;;;;;;5030922;28;20495;-69
2022/01/23 03:44:09;;;;;;;26.20;11.23;;;4.80;93.70;;;;;;5028795;28;20173;-70
2022/01/23 03:51:55;;;;;;;23.83;10.50;;;4.90;93.70;;;;;;5092986;28;20483;-69
2022/01/23 03:54:23;;;;;;;23.30;11.37;;;4.90;93.50;;;;;;5091930;28;20416;-70
2022/01/23 03:56:49;;;;;;;28.27;11.53;;;4.90;93.40;;;;;;5091653;28;20524;-69
2022/01/23 03:59:14;;;;;;;30.20;11.60;;;4.90;93.40;;;;;;5099135;28;20537;-69
2022/01/23 04:01:40;;;;;;;26.20;10.53;;;4.90;93.40;;;;;;5104856;28;20195;-70
2022/01/23 04:04:17;;;;;;;28.37;11.10;;;5.00;93.20;;;;;;5094920;28;20190;-69
2022/01/23 04:06:43;;;;;;;23.60;11.20;;;5.00;93.10;;;;;;5092683;28;20210;-70
2022/01/23 04:09:09;;;;;;;26.20;11.70;;;4.90;93.20;;;;;;5092947;28;20421;-69
2022/01/23 04:11:35;;;;;;;24.90;10.33;;;4.90;93.20;;;;;;5091783;28;20211;-70
2022/01/23 04:14:06;;;;;;;28.33;11.93;;;5.00;93.20;;;;;;5088955;28;20195;-68
2022/01/23 04:16:50;;;;;;;29.70;11.83;;;5.00;93.10;;;;;;5089743;28;20357;-69
2022/01/23 04:45:18;;;;;;;30.23;11.83;;;4.80;93.30;;;;;;5091587;28;20917;-70
2022/01/23 04:47:43;;;;;;;26.40;10.83;;;4.80;93.40;;;;;;5090763;28;20819;-70
2022/01/23 04:59:53;;;;;;;24.53;11.60;;;4.90;93.10;;;;;;5090644;28;20447;-69
2022/01/23 05:04:46;;;;;;;29.63;12.47;;;4.90;93.00;;;;;;5091619;28;20428;-70
2022/01/23 05:07:14;;;;;;;26.80;9.73;;;4.90;93.10;;;;;;5092204;28;20883;-70
2022/01/23 05:09:40;;;;;;;26.10;11.13;;;5.00;93.20;;;;;;5093972;28;20708;-69
2022/01/23 05:12:10;;;;;;;24.83;11.43;;;5.00;93.20;;;;;;5097967;28;20440;-70
2022/01/23 05:14:42;;;;;;;23.97;10.17;;;5.00;93.20;;;;;;5105497;28;20263;-69
2022/01/23 05:17:11;;;;;;;28.90;11.50;;;5.00;93.20;;;;;;5104011;28;20445;-69
2022/01/23 05:19:39;;;;;;;24.10;11.27;;;5.00;93.20;;;;;;5103465;28;20577;-70
2022/01/23 05:24:37;;;;;;;23.90;10.90;;;5.00;93.20;;;;;;5098799;28;20417;-69
2022/01/23 05:27:06;;;;;;;24.00;11.53;;;5.00;93.40;;;;;;5098033;28;20441;-68
2022/01/23 05:29:33;;;;;;;23.07;10.10;;;5.00;93.40;;;;;;5105094;28;20900;-69
2022/01/23 05:31:59;;;;;;;25.70;11.03;;;5.00;93.50;;;;;;5101400;28;20444;-67
2022/01/23 05:34:25;;;;;;;28.23;12.30;;;5.10;93.30;;;;;;5092617;28;20425;-70
2022/01/23 05:36:51;;;;;;;28.10;11.87;;;5.10;93.20;;;;;;5092366;28;20756;-70
2022/01/23 05:39:21;;;;;;;30.23;13.63;;;5.00;93.20;;;;;;5090428;28;20931;-71
2022/01/23 05:41:47;;;;;;;33.40;13.10;;;5.00;93.30;;;;;;5090893;28;20421;-68
2022/01/23 05:44:13;;;;;;;26.30;13.30;;;5.00;93.20;;;;;;5091609;28;20976;-69
2022/01/23 05:46:39;;;;;;;25.43;13.90;;;5.00;93.20;;;;;;5091001;28;20475;-70
2022/01/23 05:49:06;;;;;;;27.63;14.00;;;5.00;93.30;;;;;;5091521;28;20185;-69
2022/01/23 05:51:31;;;;;;;33.97;15.53;;;5.00;93.40;;;;;;5091071;28;20475;-71
2022/01/23 05:53:57;;;;;;;29.50;13.70;;;4.90;93.40;;;;;;5090257;28;20794;-70
2022/01/23 05:56:23;;;;;;;32.73;13.63;;;5.00;93.40;;;;;;5090400;28;20734;-71
2022/01/23 05:58:49;;;;;;;32.10;14.67;;;4.90;93.30;;;;;;5089661;28;20207;-68
2022/01/23 06:01:14;;;;;;;28.63;13.37;;;4.90;93.40;;;;;;5090284;28;20179;-68
2022/01/23 06:03:40;;;;;;;25.60;12.43;;;4.90;93.50;;;;;;5090881;28;20779;-70
2022/01/23 06:06:06;;;;;;;30.33;12.10;;;4.90;93.50;;;;;;5090475;28;20183;-70
2022/01/23 06:08:31;;;;;;;29.90;12.73;;;5.00;93.50;;;;;;5091111;28;20179;-71
2022/01/23 06:10:57;;;;;;;31.50;13.77;;;5.00;93.50;;;;;;5089960;28;20190;-69
2022/01/23 06:13:26;;;;;;;29.73;13.03;;;5.00;93.50;;;;;;5091076;28;20179;-69
2022/01/23 06:15:53;;;;;;;25.90;11.37;;;5.00;93.50;;;;;;5091354;28;20420;-69
2022/01/23 06:18:19;;;;;;;32.03;13.13;;;5.10;93.50;;;;;;5091915;28;20963;-71
2022/01/23 06:20:45;;;;;;;29.40;13.20;;;5.10;93.40;;;;;;5092046;28;20426;-70
2022/01/23 06:23:11;;;;;;;32.93;14.80;;;5.00;93.20;;;;;;5094646;28;20423;-69
2022/01/23 06:25:40;;;;;;;32.50;15.23;;;4.90;92.90;;;;;;5095359;28;20417;-71
2022/01/23 06:28:07;;;;;;;23.73;12.83;;;4.90;93.00;;;;;;5092200;28;20879;-69
2022/01/23 06:30:34;;;;;;;33.80;14.50;;;4.90;93.20;;;;;;5092080;28;20413;-69
2022/01/23 06:33:00;;;;;;;29.27;12.83;;;5.00;93.00;;;;;;5089917;28;20426;-69
2022/01/23 06:35:27;;;;;;;31.27;13.20;;;4.90;92.80;;;;;;5089407;28;20425;-67
2022/01/23 06:37:52;;;;;;;33.03;14.37;;;4.90;92.80;;;;;;5088779;28;20529;-68
2022/01/23 06:40:18;;;;;;;30.50;13.40;;;4.80;92.80;;;;;;5095139;28;20413;-69
2022/01/23 06:42:44;;;;;;;34.90;15.20;;;4.70;92.90;;;;;;5095980;28;20420;-69
2022/01/23 06:45:10;;;;;;;30.37;14.70;;;4.70;93.10;;;;;;5092122;28;20476;-70
2022/01/23 06:47:36;;;;;;;35.70;14.73;;;4.70;93.30;;;;;;5092809;28;20993;-69
2022/01/23 06:50:03;;;;;;;32.47;15.03;;;4.80;93.50;;;;;;5093640;28;20263;-69
2022/01/23 06:52:28;;;;;;;29.17;13.47;;;4.80;93.60;;;;;;5092969;28;20175;-69
2022/01/23 06:54:54;;;;;;;30.73;14.77;;;4.80;93.70;;;;;;5093258;28;20520;-69
2022/01/23 06:57:20;;;;;;;29.43;12.93;;;4.90;93.50;;;;;;5092876;28;20199;-69
2022/01/23 06:59:45;;;;;;;29.43;11.80;;;4.90;93.30;;;;;;5093648;28;20190;-70
2022/01/23 07:02:11;;;;;;;29.80;13.80;;;5.00;93.20;;;;;;5093271;28;20171;-69
2022/01/23 07:04:37;;;;;;;32.37;13.60;;;4.90;93.10;;;;;;5106535;28;20190;-70
2022/01/23 07:07:03;;;;;;;28.27;12.73;;;4.90;93.10;;;;;;5101593;28;20202;-70
2022/01/23 07:09:29;;;;;;;32.30;13.53;;;4.90;93.10;;;;;;5093141;28;20607;-69
2022/01/23 07:11:55;;;;;;;29.97;14.30;;;5.00;93.30;;;;;;5091493;28;20493;-70
2022/01/23 07:14:20;;;;;;;30.00;14.60;;;5.10;93.30;;;;;;5097055;28;20417;-68
2022/01/23 07:16:46;;;;;;;31.70;13.47;;;4.90;93.30;;;;;;5091960;28;20276;-68
2022/01/23 07:19:12;;;;;;;31.17;14.13;;;4.90;93.60;;;;;;5087056;28;20207;-70
2022/01/23 07:21:38;;;;;;;25.30;12.80;;;4.90;93.80;;;;;;5092685;28;20417;-69
2022/01/23 07:24:04;;;;;;;30.97;13.50;;;4.90;93.90;;;;;;5084375;28;20421;-70
2022/01/23 07:26:30;;;;;;;27.87;13.40;;;4.90;94.00;;;;;;5092106;28;20194;-70
2022/01/23 07:28:59;;;;;;;37.97;14.30;;;5.00;94.10;;;;;;5093328;28;20421;-71
2022/01/23 07:34:02;;;;;;;34.50;14.07;;;5.10;93.80;;;;;;5093004;28;20499;-71
2022/01/23 07:36:28;;;;;;;31.03;14.13;;;5.00;93.70;;;;;;5091858;28;20463;-70
2022/01/23 07:38:54;;;;;;;30.33;14.70;;;5.00;93.80;;;;;;5092648;28;20465;-70
2022/01/23 07:41:20;;;;;;;28.30;12.83;;;5.00;93.90;;;;;;5092175;28;20410;-69
2022/01/23 07:43:46;;;;;;;31.10;14.60;;;5.10;93.80;;;;;;5091827;28;20418;-69
2022/01/23 07:46:12;;;;;;;28.37;13.97;;;5.10;93.70;;;;;;5091365;28;20447;-70
2022/01/23 07:48:39;;;;;;;31.80;15.33;;;5.10;93.80;;;;;;5092265;28;20548;-69
2022/01/23 07:51:04;;;;;;;33.73;16.77;;;5.10;93.90;;;;;;5091579;28;20423;-70
2022/01/23 07:53:30;;;;;;;37.13;15.70;;;5.10;94.00;;;;;;5092070;28;20217;-70
2022/01/23 07:55:56;;;;;;;32.40;14.73;;;5.00;93.80;;;;;;5091984;28;20192;-71
2022/01/23 07:58:21;;;;;;;37.10;14.17;;;5.00;93.60;;;;;;5092224;28;20210;-70
2022/01/23 08:00:47;;;;;;;32.87;14.37;;;5.10;93.40;;;;;;5091966;28;20191;-69
2022/01/23 08:03:13;;;;;;;31.63;13.87;;;5.10;93.10;;;;;;5091848;28;20183;-69
2022/01/23 08:05:40;;;;;;;37.63;16.10;;;5.10;93.00;;;;;;5091325;28;20185;-69
2022/01/23 08:08:06;;;;;;;35.37;16.03;;;5.20;92.90;;;;;;5094432;28;20468;-69
2022/01/23 08:10:32;;;;;;;32.87;16.07;;;5.10;92.80;;;;;;5091588;28;20448;-70
2022/01/23 08:12:58;;;;;;;38.20;16.83;;;5.20;92.70;;;;;;5092759;28;20527;-69
2022/01/23 08:15:24;;;;;;;36.30;16.17;;;5.20;92.60;;;;;;5091558;28;20504;-70
2022/01/23 08:17:49;;;;;;;31.70;14.80;;;5.20;92.70;;;;;;5091066;28;20512;-71
2022/01/23 08:20:15;;;;;;;35.70;17.00;;;5.20;92.80;;;;;;5090238;28;20420;-69
2022/01/23 08:22:41;;;;;;;33.70;16.23;;;5.20;92.80;;;;;;5091112;28;20187;-69
2022/01/23 08:25:08;;;;;;;40.03;17.70;;;5.20;92.80;;;;;;5091032;28;20417;-70
2022/01/23 08:27:34;;;;;;;38.63;16.27;;;5.20;92.80;;;;;;5091279;28;20437;-71
2022/01/23 08:30:02;;;;;;;44.03;17.10;;;5.30;92.90;;;;;;5091466;28;20532;-68
2022/01/23 08:32:27;;;;;;;33.07;16.30;;;5.30;92.80;;;;;;5091546;28;20492;-70
2022/01/23 08:34:54;;;;;;;35.33;17.07;;;5.20;92.70;;;;;;5091625;28;20509;-70
2022/01/23 08:37:20;;;;;;;40.00;16.83;;;5.20;92.70;;;;;;5091719;28;20191;-70
2022/01/23 08:39:46;;;;;;;37.03;16.50;;;5.20;92.70;;;;;;5092356;28;20461;-70
2022/01/23 08:42:17;;;;;;;37.10;16.60;;;5.20;92.50;;;;;;5092032;28;20432;-71
2022/01/23 08:44:45;;;;;;;32.93;15.37;;;5.10;92.70;;;;;;5091712;28;20528;-69
2022/01/23 08:47:11;;;;;;;46.97;19.90;;;5.00;93.10;;;;;;5091494;28;20440;-70
2022/01/23 08:49:44;;;;;;;38.57;18.63;;;4.90;93.20;;;;;;5092144;28;20429;-70
2022/01/23 08:52:11;;;;;;;39.03;18.23;;;4.90;93.40;;;;;;5091098;28;20183;-69
2022/01/23 08:54:37;;;;;;;37.10;16.57;;;4.90;93.50;;;;;;5091359;28;20429;-68
2022/01/23 08:57:03;;;;;;;38.53;17.00;;;4.90;93.60;;;;;;5091434;28;20441;-68
2022/01/23 08:59:28;;;;;;;39.53;17.37;;;5.00;93.50;;;;;;5091460;28;20494;-68
2022/01/23 09:01:54;;;;;;;47.20;22.67;;;5.00;93.40;;;;;;5099657;28;20445;-70
2022/01/23 09:04:20;;;;;;;41.47;18.00;;;5.10;93.20;;;;;;5091462;28;20218;-70
2022/01/23 09:06:47;;;;;;;42.40;17.80;;;5.30;93.30;;;;;;5090763;28;20263;-71
2022/01/23 09:09:19;;;;;;;39.50;17.00;;;5.40;93.00;;;;;;5091568;28;20175;-69
2022/01/23 09:14:22;;;;;;;42.20;19.10;;;5.50;91.90;;;;;;5091560;28;20445;-68
2022/01/23 09:16:50;;;;;;;36.90;17.40;;;5.40;92.00;;;;;;5090878;28;20449;-69
2022/01/23 09:19:18;;;;;;;39.73;17.90;;;5.40;92.30;;;;;;5088694;28;20461;-69
2022/01/23 09:21:44;;;;;;;42.13;17.43;;;5.40;92.40;;;;;;5093831;28;20532;-69
2022/01/23 09:24:11;;;;;;;44.00;18.77;;;5.40;92.40;;;;;;5091336;28;20414;-69
2022/01/23 09:26:37;;;;;;;43.13;17.70;;;5.50;92.40;;;;;;5089367;28;20437;-70
2022/01/23 09:29:13;;;;;;;41.80;18.07;;;5.60;92.10;;;;;;5092173;28;20417;-68
2022/01/23 09:31:49;;;;;;;37.53;17.80;;;5.60;91.60;;;;;;5090951;28;20417;-70
2022/01/23 09:34:19;;;;;;;41.70;17.90;;;5.70;91.80;;;;;;5091126;28;20420;-69
2022/01/23 09:36:45;;;;;;;37.00;17.90;;;5.80;91.50;;;;;;5091035;28;20516;-70
2022/01/23 09:39:15;;;;;;;44.40;19.33;;;5.80;91.30;;;;;;5091591;28;20461;-70
2022/01/23 09:41:47;;;;;;;47.47;19.40;;;6.00;91.20;;;;;;5091362;28;20426;-70
2022/01/23 09:44:19;;;;;;;39.60;18.10;;;6.10;91.00;;;;;;5091177;28;20897;-70
2022/01/23 09:46:46;;;;;;;43.43;17.40;;;6.20;90.70;;;;;;5090775;28;20480;-69
2022/01/23 09:49:15;;;;;;;37.23;16.40;;;6.20;90.00;;;;;;5089314;28;21008;-70
2022/01/23 09:51:42;;;;;;;37.17;16.50;;;6.10;89.30;;;;;;5089348;28;20542;-69
2022/01/23 09:54:11;;;;;;;40.00;17.10;;;6.10;89.30;;;;;;5089404;28;20421;-69
2022/01/23 09:56:36;;;;;;;47.33;18.57;;;6.10;89.70;;;;;;5090900;28;20526;-71
2022/01/23 09:59:03;;;;;;;39.50;16.97;;;6.10;89.60;;;;;;5088237;28;20481;-71
2022/01/23 10:01:29;;;;;;;33.87;16.40;;;6.10;89.20;;;;;;5090172;28;20484;-71
2022/01/23 10:03:55;;;;;;;35.60;16.73;;;6.20;89.50;;;;;;5090111;28;20479;-72
2022/01/23 10:06:21;;;;;;;35.63;17.80;;;6.20;88.60;;;;;;5089801;28;20855;-71
2022/01/23 10:08:49;;;;;;;34.87;15.33;;;6.10;88.60;;;;;;5092511;28;20428;-70
2022/01/23 10:11:15;;;;;;;35.53;17.10;;;6.10;89.00;;;;;;5090744;28;20206;-69
2022/01/23 10:13:43;;;;;;;38.40;17.10;;;6.10;88.90;;;;;;5087472;28;20429;-71
2022/01/23 10:16:09;;;;;;;42.50;18.33;;;6.10;89.20;;;;;;5089051;28;20429;-70
2022/01/23 10:18:36;;;;;;;40.17;18.53;;;6.10;89.60;;;;;;5089417;28;21071;-70
2022/01/23 10:21:02;;;;;;;42.50;18.27;;;5.90;89.70;;;;;;5089262;28;20465;-70
2022/01/23 10:23:28;;;;;;;35.57;15.70;;;5.80;90.40;;;;;;5089028;28;20920;-71
2022/01/23 10:25:54;;;;;;;30.53;13.70;;;5.90;90.60;;;;;;5089006;28;20420;-71
2022/01/23 10:28:26;;;;;;;30.23;13.23;;;6.00;90.20;;;;;;5086816;28;21332;-69
2022/01/23 10:31:00;;;;;;;32.07;15.47;;;6.10;88.90;;;;;;5088512;28;20413;-71
2022/01/23 10:33:28;;;;;;;34.07;14.97;;;6.20;88.30;;;;;;5089050;28;20791;-70
2022/01/23 10:36:12;;;;;;;27.17;12.17;;;6.20;88.60;;;;;;5080471;28;20421;-72
2022/01/23 10:38:46;;;;;;;26.00;12.03;;;6.30;88.40;;;;;;5088775;28;20873;-71
2022/01/23 10:47:28;;;;;;;27.60;11.30;;;6.30;86.20;;;;;;5091156;28;20460;-70
2022/01/23 10:49:52;;;;;;;28.20;11.20;;;6.40;85.60;;;;;;5089670;28;20425;-70
2022/01/23 10:52:49;;;;;;;27.07;12.27;;;6.20;85.50;;;;;;5089905;28;20421;-70
2022/01/23 10:55:21;;;;;;;25.90;11.30;;;6.20;85.90;;;;;;5083358;28;20804;-71
2022/01/23 10:57:50;;;;;;;30.77;12.97;;;6.20;86.30;;;;;;5088386;28;20813;-73
2022/01/23 11:00:35;;;;;;;28.67;13.60;;;6.30;86.30;;;;;;5087315;28;20417;-70
2022/01/23 11:03:13;;;;;;;20.50;10.50;;;6.30;86.50;;;;;;5081692;28;20547;-72
2022/01/23 11:05:39;;;;;;;26.13;12.57;;;6.40;86.30;;;;;;5089072;28;20417;-71
2022/01/23 11:08:20;;;;;;;26.77;11.83;;;6.40;86.00;;;;;;5088924;28;20436;-73
2022/01/23 11:10:54;;;;;;;27.50;12.53;;;6.40;85.70;;;;;;5087567;28;20490;-71
2022/01/23 11:19:27;;;;;;;21.53;10.83;;;6.40;86.00;;;;;;5084966;28;20526;-71
2022/01/23 11:21:54;;;;;;;27.57;12.03;;;6.40;85.60;;;;;;5084700;28;20413;-72
2022/01/23 11:24:21;;;;;;;23.20;12.07;;;6.40;85.90;;;;;;5090104;28;20482;-72
2022/01/23 11:26:47;;;;;;;29.87;13.90;;;6.50;86.20;;;;;;5089387;28;20466;-72
2022/01/23 11:29:16;;;;;;;25.73;12.87;;;6.70;85.60;;;;;;5093108;28;20409;-71
2022/01/23 11:31:44;;;;;;;28.80;12.00;;;6.70;84.00;;;;;;5091549;28;20935;-71
2022/01/23 11:34:12;;;;;;;30.77;14.20;;;6.60;84.30;;;;;;5093146;28;20988;-71
2022/01/23 11:36:39;;;;;;;32.53;14.53;;;6.50;84.70;;;;;;5091860;28;20459;-70
2022/01/23 11:39:14;;;;;;;28.77;12.73;;;6.50;85.00;;;;;;5090724;28;20500;-70
2022/01/23 11:56:25;;;;;;;29.10;12.87;;;6.70;84.60;;;;;;5093489;28;20761;-71
2022/01/23 11:59:09;;;;;;;31.73;13.00;;;6.90;84.70;;;;;;5093124;28;20472;-72
2022/01/23 12:01:36;;;;;;;28.03;12.00;;;7.00;84.00;;;;;;5089154;28;20418;-72
2022/01/23 12:04:16;;;;;;;18.80;10.70;;;7.10;83.00;;;;;;5092063;28;20968;-72
2022/01/23 12:06:42;;;;;;;29.47;11.73;;;7.20;82.10;;;;;;5090191;28;20528;-72
2022/01/23 12:09:16;;;;;;;28.27;12.30;;;7.20;81.90;;;;;;5091988;28;20421;-71
2022/01/23 12:12:09;;;;;;;25.47;12.50;;;7.30;81.70;;;;;;5091938;28;20428;-71
2022/01/23 12:17:15;;;;;;;27.27;11.40;;;7.30;81.10;;;;;;5091217;28;20469;-72
2022/01/23 12:19:48;;;;;;;21.90;10.83;;;7.30;80.90;;;;;;5089700;28;21141;-72
2022/01/23 12:22:34;;;;;;;22.33;10.30;;;7.30;79.60;;;;;;5091896;28;20834;-71
2022/01/23 12:25:16;;;;;;;22.90;10.43;;;7.10;79.30;;;;;;5085228;28;20475;-72
2022/01/23 12:27:42;;;;;;;25.77;11.73;;;7.10;79.70;;;;;;5089313;28;20910;-71
2022/01/23 12:30:13;;;;;;;26.00;11.40;;;7.10;79.70;;;;;;5091032;28;20421;-71
2022/01/23 12:32:38;;;;;;;24.87;12.47;;;7.00;80.50;;;;;;5089839;28;20439;-72
2022/01/23 12:35:07;;;;;;;22.60;11.70;;;6.90;81.20;;;;;;5091268;28;20410;-72
2022/01/23 12:37:55;;;;;;;25.33;10.73;;;6.80;81.80;;;;;;5090905;28;20215;-72
2022/01/23 12:40:27;;;;;;;18.57;10.07;;;6.90;81.70;;;;;;5089861;28;20425;-70
2022/01/23 12:43:24;;;;;;;16.90;7.80;;;6.90;80.00;;;;;;5091435;28;20417;-71
2022/01/23 12:46:01;;;;;;;21.10;9.83;;;6.90;79.30;;;;;;5090142;28;20524;-73
2022/01/23 12:48:27;;;;;;;19.10;8.80;;;7.00;78.90;;;;;;5089741;28;20456;-72
2022/01/23 12:51:07;;;;;;;18.13;8.70;;;6.80;76.70;;;;;;5082797;28;20417;-72
2022/01/23 12:53:38;;;;;;;24.13;9.17;;;6.90;77.80;;;;;;5089325;28;20546;-70
2022/01/23 12:56:10;;;;;;;15.13;7.90;;;6.90;78.10;;;;;;5090936;28;20473;-72
2022/01/23 12:58:37;;;;;;;15.83;8.33;;;7.00;77.70;;;;;;5089571;28;21335;-71
2022/01/23 13:01:18;;;;;;;15.53;8.33;;;7.10;76.70;;;;;;5090446;28;20448;-71
2022/01/23 13:03:54;;;;;;;23.50;10.00;;;7.00;76.70;;;;;;5090656;28;20422;-71
2022/01/23 13:06:48;;;;;;;20.20;9.10;;;6.90;78.10;;;;;;5089885;28;20413;-71
2022/01/23 13:09:28;;;;;;;19.57;10.57;;;6.90;79.20;;;;;;5090573;28;20413;-71
2022/01/23 13:31:52;;;;;;;17.83;8.90;;;6.90;77.10;;;;;;5093160;28;20424;-70
2022/01/23 13:34:24;;;;;;;18.20;8.10;;;6.90;76.80;;;;;;5099763;28;20934;-71
2022/01/23 13:37:13;;;;;;;13.00;6.17;;;7.00;75.90;;;;;;5100284;28;20436;-71
2022/01/23 13:40:04;;;;;;;11.07;5.10;;;7.00;74.00;;;;;;5094699;28;20483;-69
2022/01/23 13:59:46;;;;;;;8.87;5.37;;;7.20;70.70;;;;;;5089160;28;20504;-72
2022/01/23 14:02:29;;;;;;;8.63;3.97;;;7.10;71.60;;;;;;5084141;28;20422;-70
2022/01/23 14:05:02;;;;;;;7.40;4.17;;;7.20;69.40;;;;;;5081526;28;20405;-73
2022/01/23 14:07:29;;;;;;;10.47;4.93;;;6.90;69.20;;;;;;5089625;28;20429;-69
2022/01/23 14:10:08;;;;;;;7.70;4.40;;;6.80;69.90;;;;;;5089186;28;20444;-70
2022/01/23 14:12:34;;;;;;;7.77;4.40;;;6.90;70.40;;;;;;5087893;28;20429;-72
2022/01/23 14:15:05;;;;;;;6.77;3.43;;;6.90;70.40;;;;;;5086978;28;20433;-72
2022/01/23 14:17:36;;;;;;;7.33;3.60;;;6.90;70.70;;;;;;5088073;28;20302;-72
2022/01/23 14:20:14;;;;;;;6.87;3.33;;;6.80;70.10;;;;;;5088313;28;21123;-74
2022/01/23 14:22:42;;;;;;;8.23;3.30;;;6.80;70.50;;;;;;5086779;28;20429;-72
2022/01/23 14:25:09;;;;;;;5.90;2.93;;;6.80;70.10;;;;;;5088282;28;20417;-70
2022/01/23 14:27:36;;;;;;;5.30;3.20;;;6.70;68.90;;;;;;5086689;28;20959;-72
2022/01/23 14:30:06;;;;;;;6.00;3.40;;;6.70;69.20;;;;;;5088730;28;20489;-70
2022/01/23 14:32:43;;;;;;;5.80;3.30;;;6.60;69.10;;;;;;5090760;28;20425;-71
2022/01/23 14:35:20;;;;;;;7.90;3.80;;;6.60;69.20;;;;;;5088715;28;20428;-71
2022/01/23 14:37:48;;;;;;;5.70;3.63;;;6.50;69.20;;;;;;5088964;28;20449;-71
2022/01/23 14:40:25;;;;;;;4.80;3.10;;;6.50;69.80;;;;;;5083652;28;20429;-72
2022/01/23 14:43:02;;;;;;;4.00;3.03;;;6.40;70.10;;;;;;5089625;28;20466;-72
2022/01/23 14:45:30;;;;;;;7.50;3.50;;;6.40;69.90;;;;;;5085664;28;20946;-70
2022/01/23 14:47:56;;;;;;;6.00;3.50;;;6.40;70.20;;;;;;5089328;28;20521;-72
2022/01/23 14:50:24;;;;;;;5.00;3.07;;;6.40;69.80;;;;;;5091112;28;20512;-72
2022/01/23 14:52:50;;;;;;;6.73;3.37;;;6.30;69.90;;;;;;5089055;28;20206;-72
2022/01/23 14:55:16;;;;;;;7.80;3.47;;;6.20;70.50;;;;;;5087568;28;20870;-73
2022/01/23 14:57:44;;;;;;;6.90;4.20;;;6.20;71.30;;;;;;5089553;28;20207;-72
2022/01/23 15:00:12;;;;;;;7.07;4.03;;;6.30;71.10;;;;;;5087588;28;20435;-71
2022/01/23 15:02:43;;;;;;;5.73;3.30;;;6.40;71.10;;;;;;5091830;28;20417;-73
2022/01/23 15:05:09;;;;;;;5.27;3.77;;;6.40;71.10;;;;;;5091090;28;20482;-72
2022/01/23 15:07:36;;;;;;;6.53;3.90;;;6.40;71.30;;;;;;5091127;28;20876;-71
2022/01/23 15:10:05;;;;;;;7.77;3.53;;;6.50;70.20;;;;;;5091326;28;20508;-72
2022/01/23 15:12:31;;;;;;;8.53;4.10;;;6.40;70.70;;;;;;5089302;28;20441;-73
2022/01/23 15:14:56;;;;;;;8.37;3.73;;;6.40;71.10;;;;;;5091519;28;20426;-72
2022/01/23 15:17:22;;;;;;;7.17;3.60;;;6.40;71.30;;;;;;5091543;28;21012;-71
2022/01/23 15:19:48;;;;;;;8.30;3.90;;;6.40;70.50;;;;;;5093465;28;20246;-70
2022/01/23 15:22:14;;;;;;;8.40;3.73;;;6.50;70.70;;;;;;5095164;28;20915;-72
2022/01/23 15:24:39;;;;;;;6.47;3.63;;;6.50;70.80;;;;;;5095017;28;20425;-71
2022/01/23 15:27:06;;;;;;;9.23;4.27;;;6.40;71.10;;;;;;5092161;28;21003;-70
2022/01/23 15:29:31;;;;;;;10.20;4.50;;;6.40;71.40;;;;;;5095018;28;20205;-72
2022/01/23 15:31:57;;;;;;;6.40;4.13;;;6.30;71.70;;;;;;5092664;28;20520;-72
2022/01/23 15:34:23;;;;;;;9.13;3.73;;;6.30;72.00;;;;;;5093065;28;20180;-72
2022/01/23 15:36:50;;;;;;;6.00;3.87;;;6.20;72.10;;;;;;5093295;28;20199;-72
2022/01/23 15:39:16;;;;;;;8.60;4.00;;;6.20;72.00;;;;;;5093100;28;20203;-71
2022/01/23 15:41:42;;;;;;;7.13;3.87;;;6.20;71.70;;;;;;5092585;28;20860;-70
2022/01/23 15:44:08;;;;;;;10.63;4.00;;;6.20;72.10;;;;;;5089632;28;20505;-71
2022/01/23 15:46:34;;;;;;;5.60;3.63;;;6.20;72.90;;;;;;5090503;28;20774;-76
2022/01/23 15:49:00;;;;;;;7.40;3.57;;;6.10;73.00;;;;;;5090592;28;20611;-71
2022/01/23 15:51:26;;;;;;;7.10;4.00;;;6.10;73.50;;;;;;5090611;28;20421;-71
2022/01/23 15:53:52;;;;;;;8.30;3.90;;;6.20;73.00;;;;;;5090886;28;20262;-69
2022/01/23 15:56:17;;;;;;;6.90;4.13;;;6.40;72.30;;;;;;5090108;28;20425;-70
2022/01/23 15:58:43;;;;;;;7.83;4.50;;;6.40;71.70;;;;;;5093043;28;20515;-71
2022/01/23 16:01:09;;;;;;;6.60;3.90;;;6.40;71.70;;;;;;5093921;28;20176;-71
2022/01/23 16:03:35;;;;;;;8.20;5.10;;;6.30;72.00;;;;;;5090482;28;20183;-70
2022/01/23 16:06:00;;;;;;;7.30;3.93;;;6.30;72.00;;;;;;5090065;28;20199;-71
2022/01/23 16:08:26;;;;;;;7.33;3.97;;;6.30;72.30;;;;;;5090627;28;20388;-71
2022/01/23 16:10:53;;;;;;;8.27;3.60;;;6.30;72.40;;;;;;5089184;28;20577;-70
2022/01/23 16:13:19;;;;;;;7.77;4.13;;;6.20;72.40;;;;;;5090137;28;20478;-71
2022/01/23 16:15:45;;;;;;;10.63;4.40;;;6.20;72.70;;;;;;5090556;28;20436;-71
2022/01/23 16:18:12;;;;;;;11.43;4.53;;;6.20;73.20;;;;;;5090941;28;20484;-71
2022/01/23 16:20:38;;;;;;;10.50;4.07;;;6.20;73.30;;;;;;5090976;28;20516;-71
2022/01/23 16:23:05;;;;;;;9.23;3.90;;;6.10;73.30;;;;;;5090208;28;20493;-71